Time;durP1;ratioP1;P1;durP2;ratioP2;P2;SDS_P1;SDS_P2;PMS_P1;PMS_P2;Temp;Humidity;BMP_temperature;BMP_pressure;BME280_temperature;BME280_humidity;BME280_pressure;Samples;Min_cycle;Max_cycle;Signal;HPM_P1;HPM_P2
2022/03/20 00:00:33;;;;;;;;;;;6.20;99.30;;;;;;5024928;28;19931;-83
2022/03/20 00:02:59;;;;;;;;;;;6.20;99.30;;;;;;5022952;28;19944;-83
2022/03/20 00:05:26;;;;;;;;;;;6.20;99.20;;;;;;5011264;28;19929;-83
2022/03/20 00:07:53;;;;;;;;;;;6.20;99.10;;;;;;5019594;28;19925;-83
2022/03/20 00:10:19;;;;;;;;;;;7.20;99.40;;;;;;5027089;28;20004;-83
2022/03/20 00:12:46;;;;;;;;;;;6.10;98.80;;;;;;5029783;28;19925;-83
2022/03/20 00:15:15;;;;;;;;;;;6.10;99.10;;;;;;5014322;28;19983;-83
2022/03/20 00:17:42;;;;;;;;;;;6.10;99.20;;;;;;5037571;28;19963;-83
2022/03/20 00:20:11;;;;;;;;;;;6.10;99.20;;;;;;5021489;28;19933;-83
2022/03/20 00:22:38;;;;;;;;;;;6.10;99.00;;;;;;5021915;28;20012;-83
2022/03/20 00:25:05;;;;;;;;;;;6.10;99.30;;;;;;5029292;28;20382;-83
2022/03/20 00:27:32;;;;;;;;;;;6.10;99.20;;;;;;5019448;28;19921;-84
2022/03/20 00:30:01;;;;;;;;;;;7.70;99.50;;;;;;5018248;28;20545;-83
2022/03/20 00:32:29;;;;;;;;;;;6.00;98.80;;;;;;5029101;28;19925;-82
2022/03/20 00:34:59;;;;;;;;;;;5.40;99.20;;;;;;5004750;28;19926;-83
2022/03/20 00:37:26;;;;;;;;;;;6.00;99.40;;;;;;5024255;28;19931;-83
2022/03/20 00:39:53;;;;;;;;;;;5.90;99.50;;;;;;5026197;28;19937;-83
2022/03/20 00:42:20;;;;;;;;;;;5.90;99.50;;;;;;5022123;28;19933;-83
2022/03/20 00:44:46;;;;;;;;;;;5.90;99.50;;;;;;5009223;28;19925;-84
2022/03/20 00:47:13;;;;;;;;;;;5.90;99.60;;;;;;5021854;28;19925;-83
2022/03/20 00:49:42;;;;;;;;;;;6.30;99.90;;;;;;5011954;28;19920;-84
2022/03/20 00:52:10;;;;;;;;;;;5.80;99.90;;;;;;5021388;28;19963;-83
2022/03/20 00:54:36;;;;;;;;;;;5.80;99.90;;;;;;5025733;28;19920;-83
2022/03/20 00:57:04;;;;;;;;;;;5.80;99.90;;;;;;5022548;28;19921;-84
2022/03/20 00:59:30;;;;;;;;;;;5.80;99.90;;;;;;5018880;28;19926;-84
2022/03/20 01:01:57;;;;;;;;;;;5.80;99.90;;;;;;5027277;28;19928;-84
2022/03/20 01:04:24;;;;;;;;;;;5.80;99.90;;;;;;5024721;28;19932;-84
2022/03/20 01:06:55;;;;;;;;;;;5.70;99.90;;;;;;5022724;28;19929;-84
2022/03/20 01:09:22;;;;;;;;;;;5.70;99.90;;;;;;5017162;28;20002;-84
2022/03/20 01:11:49;;;;;;;;;;;5.70;99.90;;;;;;5027401;28;19936;-84
2022/03/20 01:14:16;;;;;;;;;;;5.80;99.90;;;;;;5027852;28;19932;-84
2022/03/20 01:16:42;;;;;;;;;;;5.70;99.90;;;;;;5014308;28;19926;-84
2022/03/20 01:19:09;;;;;;;;;;;5.60;99.90;;;;;;5021495;28;20048;-84
2022/03/20 01:21:36;;;;;;;;;;;5.60;99.90;;;;;;5011759;28;20397;-84
2022/03/20 01:24:04;;;;;;;;;;;5.50;99.90;;;;;;5019569;28;19939;-83
2022/03/20 01:26:31;;;;;;;;;;;5.50;99.90;;;;;;5023437;28;19925;-84
2022/03/20 01:28:57;;;;;;;;;;;5.50;99.90;;;;;;5013558;28;19965;-84
2022/03/20 01:31:24;;;;;;;;;;;5.50;99.90;;;;;;5025172;28;19935;-84
2022/03/20 01:33:51;;;;;;;;;;;5.40;99.90;;;;;;5000594;28;19979;-84
2022/03/20 01:36:18;;;;;;;;;;;5.40;99.90;;;;;;5015387;28;19925;-84
2022/03/20 01:38:44;;;;;;;;;;;5.40;99.90;;;;;;5025730;28;19931;-84
2022/03/20 01:41:13;;;;;;;;;;;5.40;99.90;;;;;;5005664;28;20023;-84
2022/03/20 01:43:48;;;;;;;;;;;5.30;99.90;;;;;;5024453;28;19973;-84
2022/03/20 01:46:15;;;;;;;;;;;5.30;99.90;;;;;;5019273;28;20323;-84
2022/03/20 01:48:42;;;;;;;;;;;5.40;99.90;;;;;;5038506;28;19943;-84
2022/03/20 01:51:10;;;;;;;;;;;6.10;99.90;;;;;;5003032;28;19925;-84
2022/03/20 01:53:37;;;;;;;;;;;5.40;99.90;;;;;;5009750;28;20407;-84
2022/03/20 01:56:04;;;;;;;;;;;5.30;99.90;;;;;;5010877;28;19958;-84
2022/03/20 01:58:32;;;;;;;;;;;5.40;99.90;;;;;;5024740;28;19926;-84
2022/03/20 02:00:59;;;;;;;;;;;5.40;99.90;;;;;;5020622;28;19925;-84
2022/03/20 02:03:26;;;;;;;;;;;5.40;99.70;;;;;;5021784;28;19929;-84
2022/03/20 02:05:54;;;;;;;;;;;5.40;99.70;;;;;;5022895;28;19968;-84
2022/03/20 02:08:25;;;;;;;;;;;5.30;99.50;;;;;;5031149;28;20357;-84
2022/03/20 02:10:52;;;;;;;;;;;5.70;99.60;;;;;;5028808;28;20382;-84
2022/03/20 02:13:21;;;;;;;;;;;6.10;99.80;;;;;;5030466;28;20046;-84
2022/03/20 02:15:49;;;;;;;;;;;5.30;99.40;;;;;;5021293;28;20362;-84
2022/03/20 02:18:16;;;;;;;;;;;5.40;99.30;;;;;;5029758;28;19960;-84
2022/03/20 02:20:45;;;;;;;;;;;6.20;99.70;;;;;;5018559;28;19925;-85
2022/03/20 02:23:14;;;;;;;;;;;5.40;99.30;;;;;;5027411;28;19928;-86
2022/03/20 02:25:46;;;;;;;;;;;5.40;99.30;;;;;;5040147;28;19932;-84
2022/03/20 02:28:13;;;;;;;;;;;5.40;99.30;;;;;;5031581;28;19909;-84
2022/03/20 02:30:40;;;;;;;;;;;5.40;99.10;;;;;;5032393;28;19976;-84
2022/03/20 02:33:06;;;;;;;;;;;5.40;98.90;;;;;;5048037;28;19936;-85
2022/03/20 02:35:33;;;;;;;;;;;6.20;99.50;;;;;;5030355;28;19925;-84
2022/03/20 02:38:00;;;;;;;;;;;5.50;98.90;;;;;;5020240;28;19924;-84
2022/03/20 02:40:28;;;;;;;;;;;5.50;98.90;;;;;;5028709;28;19946;-84
2022/03/20 02:42:55;;;;;;;;;;;6.00;99.10;;;;;;5004567;28;19925;-84
2022/03/20 02:45:23;;;;;;;;;;;5.60;98.70;;;;;;5034647;28;19944;-85
2022/03/20 02:47:51;;;;;;;;;;;5.60;98.60;;;;;;5027152;28;19954;-84
2022/03/20 02:50:19;;;;;;;;;;;5.60;98.60;;;;;;5034464;28;19924;-84
2022/03/20 02:52:48;;;;;;;;;;;5.70;98.10;;;;;;5022572;28;19929;-84
2022/03/20 02:55:16;;;;;;;;;;;5.70;98.40;;;;;;5027873;28;19928;-84
2022/03/20 02:57:45;;;;;;;;;;;5.70;98.00;;;;;;5020562;28;20062;-83
2022/03/20 03:00:12;;;;;;;;;;;5.70;98.20;;;;;;5013801;28;19925;-85
2022/03/20 03:02:43;;;;;;;;;;;5.60;97.60;;;;;;5029187;28;20514;-84
2022/03/20 03:05:10;;;;;;;;;;;5.60;97.90;;;;;;5009564;28;19944;-84
2022/03/20 03:10:55;;;;;;;;;;;5.60;97.90;;;;;;5025026;28;19932;-84
2022/03/20 03:13:11;;;;;;;;;;;5.60;97.90;;;;;;5016675;28;20380;-84
2022/03/20 03:15:37;;;;;;;;;;;5.60;97.40;;;;;;5026665;28;19922;-85
2022/03/20 03:18:04;;;;;;;;;;;5.60;97.60;;;;;;5020455;28;20023;-84
2022/03/20 03:20:31;;;;;;;;;;;5.60;97.80;;;;;;5005152;28;19925;-84
2022/03/20 03:22:59;;;;;;;;;;;5.70;97.70;;;;;;5029561;28;19932;-84
2022/03/20 03:25:26;;;;;;;;;;;5.60;97.50;;;;;;5027860;28;19921;-84
2022/03/20 03:27:53;;;;;;;;;;;5.60;97.50;;;;;;5029008;28;19921;-84
2022/03/20 03:30:21;;;;;;;;;;;5.60;97.40;;;;;;5011737;28;20423;-84
2022/03/20 03:32:48;;;;;;;;;;;5.70;97.00;;;;;;5031975;28;20310;-82
2022/03/20 03:38:00;;;;;;;;;;;5.70;97.30;;;;;;5024513;28;19972;-82
2022/03/20 03:40:27;;;;;;;;;;;5.60;97.00;;;;;;5019558;28;19921;-83
2022/03/20 03:42:54;;;;;;;;;;;5.70;97.00;;;;;;5025151;28;19920;-83
2022/03/20 03:45:23;;;;;;;;;;;5.70;97.30;;;;;;5027409;28;19940;-83
2022/03/20 03:47:50;;;;;;;;;;;7.40;98.00;;;;;;5009296;28;20001;-83
2022/03/20 03:50:17;;;;;;;;;;;5.60;97.20;;;;;;5025593;28;19924;-83
2022/03/20 03:52:44;;;;;;;;;;;5.60;97.00;;;;;;5027443;28;19928;-83
2022/03/20 03:55:11;;;;;;;;;;;5.60;97.30;;;;;;5020869;28;19992;-84
2022/03/20 03:57:42;;;;;;;;;;;5.60;97.20;;;;;;5027551;28;20384;-84
2022/03/20 04:00:10;;;;;;;;;;;5.60;97.10;;;;;;5020317;28;19992;-83
2022/03/20 04:02:47;;;;;;;;;;;5.60;96.80;;;;;;5022421;28;19960;-84
2022/03/20 04:05:17;;;;;;;;;;;5.60;96.80;;;;;;5025131;28;19928;-84
2022/03/20 04:07:45;;;;;;;;;;;5.60;97.20;;;;;;5017724;28;19936;-84
2022/03/20 04:10:12;;;;;;;;;;;5.60;97.10;;;;;;5012315;28;20503;-84
2022/03/20 04:12:45;;;;;;;;;;;5.60;96.90;;;;;;5013292;28;19935;-85
2022/03/20 04:15:16;;;;;;;;;;;5.60;96.90;;;;;;5028786;28;19940;-85
2022/03/20 04:17:43;;;;;;;;;;;5.60;96.80;;;;;;5004341;28;19943;-85
2022/03/20 04:20:12;;;;;;;;;;;5.60;96.60;;;;;;5026290;28;19925;-86
2022/03/20 04:22:40;;;;;;;;;;;5.60;96.60;;;;;;5014238;28;20376;-85
2022/03/20 04:25:07;;;;;;;;;;;5.60;96.50;;;;;;5027170;28;19921;-85
2022/03/20 04:27:34;;;;;;;;;;;5.50;96.80;;;;;;5033332;28;19936;-85
2022/03/20 04:30:01;;;;;;;;;;;5.60;96.80;;;;;;5046268;28;19920;-85
2022/03/20 04:32:30;;;;;;;;;;;5.50;96.40;;;;;;5039507;28;19980;-85
2022/03/20 04:34:58;;;;;;;;;;;5.50;96.50;;;;;;5033101;28;19931;-85
2022/03/20 04:37:26;;;;;;;;;;;5.50;96.70;;;;;;5038130;28;20549;-85
2022/03/20 04:39:53;;;;;;;;;;;5.50;96.60;;;;;;5025656;28;19929;-85
2022/03/20 04:42:20;;;;;;;;;;;5.40;96.50;;;;;;5029687;28;19929;-84
2022/03/20 04:44:47;;;;;;;;;;;5.40;96.50;;;;;;5045038;28;19910;-85
2022/03/20 05:00:53;;;;;;;;;;;5.30;96.20;;;;;;5014941;28;19947;-85
2022/03/20 05:03:20;;;;;;;;;;;5.30;96.10;;;;;;5021286;28;19921;-86
2022/03/20 05:05:47;;;;;;;;;;;5.20;96.10;;;;;;5019294;28;19922;-86
2022/03/20 05:08:15;;;;;;;;;;;5.10;96.00;;;;;;5020667;28;20067;-86
2022/03/20 05:13:26;;;;;;;;;;;5.00;96.00;;;;;;5014683;28;19944;-86
2022/03/20 05:15:54;;;;;;;;;;;5.00;96.00;;;;;;5015993;28;20463;-85
2022/03/20 05:18:22;;;;;;;;;;;4.80;96.00;;;;;;5012249;28;20107;-86
2022/03/20 05:20:49;;;;;;;;;;;4.70;96.20;;;;;;5012743;28;19948;-86
2022/03/20 05:23:17;;;;;;;;;;;4.60;96.00;;;;;;5033153;28;19999;-86
2022/03/20 05:25:44;;;;;;;;;;;4.60;96.30;;;;;;5022260;28;19925;-86
2022/03/20 05:28:11;;;;;;;;;;;4.50;96.00;;;;;;5026675;28;19932;-86
2022/03/20 05:30:38;;;;;;;;;;;4.40;96.10;;;;;;5018302;28;19921;-86
2022/03/20 05:33:04;;;;;;;;;;;4.50;96.30;;;;;;5009031;28;20370;-85
2022/03/20 05:35:31;;;;;;;;;;;4.40;96.40;;;;;;5021280;28;19932;-86
2022/03/20 05:37:58;;;;;;;;;;;4.40;96.20;;;;;;5014991;28;19925;-85
2022/03/20 05:40:27;;;;;;;;;;;4.40;96.40;;;;;;5025643;28;20031;-85
2022/03/20 05:42:54;;;;;;;;;;;4.30;96.10;;;;;;5029230;28;19999;-85
2022/03/20 05:45:21;;;;;;;;;;;3.50;96.00;;;;;;5014299;28;19925;-85
2022/03/20 05:47:48;;;;;;;;;;;4.30;96.40;;;;;;5020649;28;19979;-85
2022/03/20 05:50:15;;;;;;;;;;;4.40;96.40;;;;;;5011217;28;19925;-85
2022/03/20 05:52:41;;;;;;;;;;;4.40;96.20;;;;;;5010247;28;19931;-85
2022/03/20 05:55:09;;;;;;;;;;;4.30;96.40;;;;;;5018874;28;19922;-85
2022/03/20 06:00:24;;;;;;;;;;;4.40;96.40;;;;;;5010215;28;19928;-85
2022/03/20 06:02:50;;;;;;;;;;;4.50;96.10;;;;;;5019878;28;19924;-84
2022/03/20 06:05:17;;;;;;;;;;;4.50;96.40;;;;;;5008752;28;19943;-85
2022/03/20 06:07:46;;;;;;;;;;;3.90;96.10;;;;;;5013848;28;19933;-85
2022/03/20 06:10:13;;;;;;;;;;;4.70;96.40;;;;;;5012789;28;19925;-85
2022/03/20 06:12:40;;;;;;;;;;;;;;;;;;5023410;28;20062;-85
2022/03/20 06:15:09;;;;;;;;;;;4.90;96.00;;;;;;5023850;28;19933;-85
2022/03/20 06:17:38;;;;;;;;;;;5.10;96.30;;;;;;5019184;28;19921;-85
2022/03/20 06:20:06;;;;;;;;;;;5.30;96.40;;;;;;5022740;28;19925;-86
2022/03/20 06:22:33;;;;;;;;;;;5.50;96.00;;;;;;5021553;28;20012;-86
2022/03/20 06:25:00;;;;;;;;;;;6.10;95.50;;;;;;5020360;28;19925;-86
2022/03/20 06:27:28;;;;;;;;;;;6.10;95.70;;;;;;5010403;28;19947;-85
2022/03/20 06:29:55;;;;;;;;;;;6.40;95.60;;;;;;5007167;28;19954;-85
2022/03/20 06:32:23;;;;;;;;;;;7.20;95.90;;;;;;5004598;28;20015;-85
2022/03/20 06:34:52;;;;;;;;;;;6.70;94.30;;;;;;5019547;28;19925;-85
2022/03/20 06:37:18;;;;;;;;;;;6.50;93.90;;;;;;5019124;28;19921;-85
2022/03/20 06:39:45;;;;;;;;;;;6.30;94.20;;;;;;5010946;28;20242;-85
2022/03/20 06:42:12;;;;;;;;;;;6.30;94.30;;;;;;5014996;28;19921;-85
2022/03/20 06:44:39;;;;;;;;;;;6.80;94.40;;;;;;5027539;28;19989;-86
2022/03/20 06:47:06;;;;;;;;;;;7.30;94.10;;;;;;5005582;28;20458;-86
2022/03/20 06:49:34;;;;;;;;;;;7.60;93.40;;;;;;5008768;28;19921;-86
2022/03/20 06:52:01;;;;;;;;;;;7.90;93.00;;;;;;5008824;28;19957;-85
2022/03/20 06:54:28;;;;;;;;;;;8.10;92.50;;;;;;5012060;28;20475;-85
2022/03/20 06:56:55;;;;;;;;;;;8.60;92.20;;;;;;5029726;28;19941;-85
2022/03/20 06:59:21;;;;;;;;;;;8.50;92.00;;;;;;5019499;28;19929;-85
2022/03/20 07:01:49;;;;;;;;;;;8.70;91.60;;;;;;5025935;28;19925;-85
2022/03/20 07:04:15;;;;;;;;;;;8.90;91.30;;;;;;5013046;28;19933;-85
2022/03/20 07:06:45;;;;;;;;;;;9.00;91.00;;;;;;5011320;28;19929;-83
2022/03/20 07:09:11;;;;;;;;;;;9.30;91.60;;;;;;5029945;28;19920;-83
2022/03/20 07:11:39;;;;;;;;;;;9.50;91.00;;;;;;5013038;28;19933;-84
2022/03/20 07:14:06;;;;;;;;;;;9.70;90.70;;;;;;5019764;28;19921;-85
2022/03/20 07:16:33;;;;;;;;;;;9.90;89.80;;;;;;5017328;28;19921;-85
2022/03/20 07:19:00;;;;;;;;;;;9.90;90.40;;;;;;5029841;28;19924;-85
2022/03/20 07:21:28;;;;;;;;;;;10.20;89.60;;;;;;5032448;28;19972;-85
2022/03/20 07:23:57;;;;;;;;;;;10.40;89.40;;;;;;5028903;28;19981;-84
2022/03/20 07:31:57;;;;;;;;;;;10.80;85.10;;;;;;5019828;28;19924;-85
2022/03/20 07:34:24;;;;;;;;;;;10.80;85.10;;;;;;5018203;28;19932;-83
2022/03/20 07:36:51;;;;;;;;;;;10.70;85.20;;;;;;5017245;28;20006;-85
2022/03/20 07:39:19;;;;;;;;;;;10.70;85.50;;;;;;5017891;28;19921;-84
2022/03/20 07:41:46;;;;;;;;;;;10.80;85.00;;;;;;5020142;28;19940;-85
2022/03/20 07:44:17;;;;;;;;;;;10.80;85.10;;;;;;5015830;28;19926;-86
2022/03/20 07:46:44;;;;;;;;;;;10.90;84.00;;;;;;5020058;28;19971;-85
2022/03/20 07:49:11;;;;;;;;;;;11.10;84.20;;;;;;5019981;28;19928;-85
2022/03/20 07:51:38;;;;;;;;;;;11.40;84.90;;;;;;5026532;28;19964;-85
2022/03/20 07:54:05;;;;;;;;;;;12.70;84.80;;;;;;5020308;28;20041;-85
2022/03/20 07:56:35;;;;;;;;;;;11.70;82.70;;;;;;5021994;28;19925;-85
2022/03/20 07:59:06;;;;;;;;;;;11.10;82.20;;;;;;5028829;28;20027;-85
2022/03/20 08:01:33;;;;;;;;;;;10.50;83.20;;;;;;5016153;28;19932;-84
2022/03/20 08:04:00;;;;;;;;;;;9.70;84.80;;;;;;5033082;28;19925;-85
2022/03/20 08:06:27;;;;;;;;;;;9.70;85.40;;;;;;5022886;28;19925;-84
2022/03/20 08:08:54;;;;;;;;;;;10.10;86.10;;;;;;5032943;28;19939;-84
2022/03/20 08:11:21;;;;;;;;;;;10.70;85.40;;;;;;5009893;28;19921;-85
2022/03/20 08:13:49;;;;;;;;;;;11.30;84.90;;;;;;5030874;28;19931;-86
2022/03/20 08:16:21;;;;;;;;;;;11.80;83.40;;;;;;5017576;28;19992;-84
2022/03/20 08:18:49;;;;;;;;;;;12.10;83.10;;;;;;5032160;28;19921;-84
2022/03/20 08:21:16;;;;;;;;;;;12.40;83.80;;;;;;5023831;28;20333;-86
2022/03/20 08:23:43;;;;;;;;;;;12.80;82.40;;;;;;5027558;28;19999;-87
2022/03/20 08:26:12;;;;;;;;;;;12.70;81.80;;;;;;5031449;28;19921;-88
2022/03/20 08:28:39;;;;;;;;;;;12.60;82.50;;;;;;5036777;28;19932;-85
2022/03/20 08:31:07;;;;;;;;;;;12.40;80.30;;;;;;5016249;28;19959;-87
2022/03/20 08:33:35;;;;;;;;;;;12.30;81.00;;;;;;5016645;28;19987;-85
2022/03/20 08:36:03;;;;;;;;;;;12.20;80.80;;;;;;5036140;28;19962;-87
2022/03/20 08:38:31;;;;;;;;;;;12.90;82.20;;;;;;5028444;28;19933;-86
2022/03/20 08:40:58;;;;;;;;;;;12.20;80.20;;;;;;5023257;28;19947;-86
2022/03/20 08:43:25;;;;;;;;;;;12.20;81.10;;;;;;5012999;28;19936;-86
2022/03/20 08:45:52;;;;;;;;;;;12.30;82.10;;;;;;5040701;28;19932;-86
2022/03/20 08:48:21;;;;;;;;;;;12.40;81.90;;;;;;5023585;28;20009;-86
2022/03/20 08:50:48;;;;;;;;;;;12.60;82.70;;;;;;5027086;28;19940;-87
2022/03/20 08:53:16;;;;;;;;;;;12.90;83.90;;;;;;5018235;28;20354;-87
2022/03/20 08:55:43;;;;;;;;;;;13.20;81.70;;;;;;5002834;28;19940;-86
2022/03/20 08:58:09;;;;;;;;;;;13.30;81.60;;;;;;5016019;28;19921;-87
2022/03/20 09:00:36;;;;;;;;;;;13.80;82.30;;;;;;5001105;28;20385;-86
2022/03/20 09:03:03;;;;;;;;;;;13.40;80.60;;;;;;5021746;28;19931;-85
2022/03/20 09:05:31;;;;;;;;;;;15.80;83.90;;;;;;5018257;28;19928;-87
2022/03/20 09:07:58;;;;;;;;;;;13.50;80.90;;;;;;5011204;28;19925;-88
2022/03/20 09:10:25;;;;;;;;;;;13.50;81.70;;;;;;5005546;28;19929;-86
2022/03/20 09:12:55;;;;;;;;;;;13.30;79.70;;;;;;5022730;28;19983;-86
2022/03/20 09:15:23;;;;;;;;;;;13.20;79.90;;;;;;5032165;28;19925;-88
2022/03/20 09:20:37;;;;;;;;;;;12.70;79.80;;;;;;5008053;28;19948;-87
2022/03/20 09:23:04;;;;;;;;;;;9.30;78.60;;;;;;5021276;28;19952;-87
2022/03/20 09:25:32;;;;;;;;;;;10.40;79.40;;;;;;5022015;28;19921;-87
2022/03/20 09:27:58;;;;;;;;;;;11.50;81.20;;;;;;5019061;28;20004;-86
2022/03/20 09:30:35;;;;;;;;;;;11.20;81.50;;;;;;5015013;28;19929;-89
2022/03/20 09:33:02;;;;;;;;;;;10.60;82.30;;;;;;5009880;28;19921;-88
2022/03/20 09:35:29;;;;;;;;;;;10.50;82.30;;;;;;5029149;28;19924;-88
2022/03/20 09:37:58;;;;;;;;;;;10.00;83.60;;;;;;5045586;28;19947;-88
2022/03/20 09:40:24;;;;;;;;;;;10.00;84.30;;;;;;5040154;28;19909;-87
2022/03/20 09:42:51;;;;;;;;;;;10.00;84.80;;;;;;5025567;28;19954;-87
2022/03/20 09:45:19;;;;;;;;;;;10.00;85.40;;;;;;5043359;28;19971;-88
2022/03/20 09:47:46;;;;;;;;;;;10.20;86.00;;;;;;5050002;28;19911;-88
2022/03/20 09:50:14;;;;;;;;;;;10.30;85.50;;;;;;5037988;28;19940;-88
2022/03/20 09:52:43;;;;;;;;;;;10.20;85.30;;;;;;5047668;28;19921;-85
2022/03/20 09:55:12;;;;;;;;;;;10.20;85.60;;;;;;5048867;28;19925;-83
2022/03/20 09:57:39;;;;;;;;;;;10.30;86.00;;;;;;5037362;28;19917;-84
2022/03/20 10:00:11;;;;;;;;;;;10.50;87.10;;;;;;5038242;28;19930;-83
2022/03/20 10:02:38;;;;;;;;;;;12.30;88.70;;;;;;5035723;28;19943;-84
2022/03/20 10:05:06;;;;;;;;;;;10.70;87.40;;;;;;5015710;28;19929;-84
2022/03/20 10:07:35;;;;;;;;;;;11.00;88.10;;;;;;5012508;28;19960;-84
2022/03/20 10:10:09;;;;;;;;;;;11.30;86.90;;;;;;5014959;28;19925;-84
2022/03/20 10:12:38;;;;;;;;;;;11.20;85.90;;;;;;5008582;28;19936;-84
2022/03/20 10:15:06;;;;;;;;;;;11.10;86.00;;;;;;5007693;28;20640;-83
2022/03/20 10:17:33;;;;;;;;;;;11.10;86.70;;;;;;5019258;28;19925;-83
2022/03/20 10:20:12;;;;;;;;;;;12.80;88.20;;;;;;5017558;28;19925;-83
2022/03/20 10:22:40;;;;;;;;;;;11.30;87.10;;;;;;5034118;28;19921;-83
2022/03/20 10:25:09;;;;;;;;;;;11.20;86.20;;;;;;5023154;28;19979;-82
2022/03/20 10:27:38;;;;;;;;;;;11.20;86.70;;;;;;5031300;28;19948;-83
2022/03/20 10:30:08;;;;;;;;;;;11.30;87.20;;;;;;5021754;28;19947;-83
2022/03/20 10:32:35;;;;;;;;;;;11.30;87.00;;;;;;5019748;28;20127;-83
2022/03/20 10:35:04;;;;;;;;;;;11.30;86.70;;;;;;5030346;28;19976;-83
2022/03/20 10:37:48;;;;;;;;;;;11.30;87.70;;;;;;5025309;28;20054;-83
2022/03/20 10:40:16;;;;;;;;;;;11.40;88.10;;;;;;5027194;28;19959;-82
2022/03/20 10:42:45;;;;;;;;;;;11.50;88.00;;;;;;5013114;28;19935;-83
2022/03/20 10:45:12;;;;;;;;;;;11.60;88.40;;;;;;5031287;28;20044;-82
2022/03/20 10:47:39;;;;;;;;;;;11.90;88.80;;;;;;5028034;28;19980;-84
2022/03/20 10:50:07;;;;;;;;;;;12.10;88.20;;;;;;5038284;28;20407;-83
2022/03/20 10:52:36;;;;;;;;;;;12.20;88.60;;;;;;5026082;28;19988;-83
2022/03/20 10:55:13;;;;;;;;;;;12.40;88.70;;;;;;5018010;28;19925;-84
2022/03/20 10:57:40;;;;;;;;;;;12.60;89.20;;;;;;5046146;28;19927;-86
2022/03/20 11:00:14;;;;;;;;;;;13.10;88.10;;;;;;5024768;28;19948;-86
2022/03/20 11:02:41;;;;;;;;;;;13.10;88.40;;;;;;5026450;28;19933;-85
2022/03/20 11:05:09;;;;;;;;;;;13.30;87.90;;;;;;5033086;28;20004;-85
2022/03/20 11:07:36;;;;;;;;;;;13.50;88.30;;;;;;5016153;28;19988;-86
2022/03/20 11:10:08;;;;;;;;;;;13.70;88.80;;;;;;5028192;28;19928;-85
2022/03/20 11:12:35;;;;;;;;;;;14.20;88.40;;;;;;5012493;28;19929;-85
2022/03/20 11:15:04;;;;;;;;;;;14.20;88.10;;;;;;5023011;28;19921;-86
2022/03/20 11:17:37;;;;;;;;;;;14.40;87.80;;;;;;5034939;28;19948;-84
2022/03/20 11:20:05;;;;;;;;;;;14.00;86.90;;;;;;5026751;28;19921;-84
2022/03/20 11:22:32;;;;;;;;;;;14.90;86.60;;;;;;5018844;28;19924;-84
2022/03/20 11:24:59;;;;;;;;;;;15.00;86.90;;;;;;5023336;28;19925;-85
2022/03/20 11:27:27;;;;;;;;;;;15.00;86.10;;;;;;4999431;28;20006;-84
2022/03/20 11:29:57;;;;;;;;;;;15.30;87.10;;;;;;5024796;28;20720;-85
2022/03/20 11:32:24;;;;;;;;;;;15.60;85.50;;;;;;5028065;28;19963;-84
2022/03/20 11:34:53;;;;;;;;;;;15.90;85.80;;;;;;5027548;28;19929;-85
2022/03/20 11:37:19;;;;;;;;;;;15.70;83.90;;;;;;5021279;28;19936;-85
2022/03/20 11:40:06;;;;;;;;;;;15.70;84.80;;;;;;5020115;28;19959;-86
2022/03/20 11:42:33;;;;;;;;;;;15.80;85.20;;;;;;5008546;28;19921;-85
2022/03/20 11:45:09;;;;;;;;;;;15.90;84.90;;;;;;5014908;28;19928;-85
2022/03/20 11:47:37;;;;;;;;;;;17.80;86.10;;;;;;5021028;28;20656;-86
2022/03/20 11:50:09;;;;;;;;;;;16.00;84.60;;;;;;5015862;28;19925;-86
2022/03/20 11:52:48;;;;;;;;;;;16.10;84.10;;;;;;5022740;28;19921;-86
2022/03/20 11:55:43;;;;;;;;;;;16.10;84.70;;;;;;5021102;28;20381;-86
2022/03/20 11:58:10;;;;;;;;;;;16.00;83.70;;;;;;4977286;28;19925;-86
2022/03/20 12:00:39;;;;;;;;;;;15.20;83.70;;;;;;5007894;28;19924;-87
2022/03/20 12:03:37;;;;;;;;;;;14.90;84.20;;;;;;5023326;28;19929;-86
2022/03/20 12:06:17;;;;;;;;;;;14.70;84.90;;;;;;5024574;28;19925;-86
2022/03/20 12:08:52;;;;;;;;;;;14.70;85.70;;;;;;5014083;28;19920;-86
2022/03/20 12:11:24;;;;;;;;;;;14.40;85.40;;;;;;5015400;28;19928;-86
2022/03/20 12:13:57;;;;;;;;;;;14.10;86.70;;;;;;5032714;28;19921;-86
2022/03/20 12:16:42;;;;;;;;;;;13.90;87.10;;;;;;5023760;28;19967;-86
2022/03/20 12:19:11;;;;;;;;;;;13.60;88.10;;;;;;5007734;28;19921;-85
2022/03/20 12:21:55;;;;;;;;;;;13.20;88.70;;;;;;5020299;28;19968;-84
2022/03/20 12:24:45;;;;;;;;;;;13.20;89.30;;;;;;5021110;28;19983;-84
2022/03/20 12:27:30;;;;;;;;;;;13.10;89.80;;;;;;5011612;28;19970;-84
2022/03/20 12:29:58;;;;;;;;;;;12.80;90.20;;;;;;5028872;28;20000;-84
2022/03/20 12:32:48;;;;;;;;;;;12.80;90.50;;;;;;5026946;28;19956;-84
2022/03/20 12:35:18;;;;;;;;;;;12.80;90.20;;;;;;5020391;28;20023;-83
2022/03/20 12:37:49;;;;;;;;;;;12.80;90.70;;;;;;5030784;28;19924;-84
2022/03/20 12:40:17;;;;;;;;;;;12.70;90.70;;;;;;5006628;28;20013;-84
2022/03/20 12:42:44;;;;;;;;;;;12.70;91.00;;;;;;5017146;28;19970;-84
2022/03/20 12:45:15;;;;;;;;;;;12.60;91.30;;;;;;5019798;28;19932;-84
2022/03/20 12:47:52;;;;;;;;;;;12.50;91.50;;;;;;5015702;28;19921;-84
2022/03/20 12:50:22;;;;;;;;;;;12.50;92.70;;;;;;5031582;28;19921;-82
2022/03/20 12:52:53;;;;;;;;;;;12.40;92.70;;;;;;5030626;28;19925;-82
2022/03/20 12:55:25;;;;;;;;;;;12.40;93.20;;;;;;5015199;28;19921;-82
2022/03/20 12:57:52;;;;;;;;;;;12.30;93.30;;;;;;5011473;28;19925;-83
2022/03/20 13:00:20;;;;;;;;;;;12.20;94.30;;;;;;5021840;28;19925;-83
2022/03/20 13:02:57;;;;;;;;;;;12.00;94.40;;;;;;5020238;28;20377;-83
2022/03/20 13:05:24;;;;;;;;;;;11.90;95.20;;;;;;5021879;28;20641;-83
2022/03/20 13:07:53;;;;;;;;;;;11.60;96.70;;;;;;5025457;28;20345;-82
2022/03/20 13:10:20;;;;;;;;;;;10.70;96.50;;;;;;5012590;28;19921;-82
2022/03/20 13:12:51;;;;;;;;;;;11.00;97.10;;;;;;5001062;28;20381;-82
2022/03/20 13:15:24;;;;;;;;;;;10.90;97.30;;;;;;5014079;28;19969;-83
2022/03/20 13:17:51;;;;;;;;;;;10.80;97.40;;;;;;5010281;28;19929;-81
2022/03/20 13:20:19;;;;;;;;;;;10.60;97.60;;;;;;5027378;28;19921;-82
2022/03/20 13:22:46;;;;;;;;;;;10.50;98.10;;;;;;5023705;28;19933;-82
2022/03/20 13:25:18;;;;;;;;;;;10.50;98.60;;;;;;5004872;28;19932;-82
2022/03/20 13:27:47;;;;;;;;;;;10.50;98.90;;;;;;5027858;28;20039;-82
2022/03/20 13:30:15;;;;;;;;;;;10.50;99.80;;;;;;5020531;28;19975;-82
2022/03/20 13:32:43;;;;;;;;;;;10.50;99.90;;;;;;5015092;28;20015;-82
2022/03/20 13:35:10;;;;;;;;;;;10.50;99.90;;;;;;5021283;28;19921;-82
2022/03/20 13:37:38;;;;;;;;;;;10.50;99.90;;;;;;5020394;28;20424;-82
2022/03/20 13:40:06;;;;;;;;;;;10.50;99.90;;;;;;5019922;28;20186;-82
2022/03/20 13:42:36;;;;;;;;;;;10.50;99.90;;;;;;5022934;28;19925;-82
2022/03/20 13:45:03;;;;;;;;;;;10.50;99.90;;;;;;5022846;28;19998;-82
2022/03/20 13:47:31;;;;;;;;;;;10.50;99.90;;;;;;5021298;28;19948;-83
2022/03/20 13:49:59;;;;;;;;;;;10.50;99.90;;;;;;5016578;28;19932;-82
2022/03/20 13:52:28;;;;;;;;;;;10.50;99.90;;;;;;5022072;28;19940;-83
2022/03/20 13:55:02;;;;;;;;;;;10.50;99.90;;;;;;5011505;28;19953;-83
2022/03/20 13:57:30;;;;;;;;;;;10.60;99.90;;;;;;5003004;28;19925;-83
2022/03/20 14:00:03;;;;;;;;;;;10.70;99.90;;;;;;5021877;28;19973;-83
2022/03/20 14:02:40;;;;;;;;;;;10.80;99.90;;;;;;5020677;28;19921;-83
2022/03/20 14:05:10;;;;;;;;;;;10.80;99.90;;;;;;5024108;28;19937;-83
2022/03/20 14:07:37;;;;;;;;;;;10.80;99.90;;;;;;5027446;28;19935;-83
2022/03/20 14:10:16;;;;;;;;;;;10.80;99.90;;;;;;5024749;28;20000;-83
2022/03/20 14:12:43;;;;;;;;;;;10.70;99.90;;;;;;5031644;28;19925;-82
2022/03/20 14:15:11;;;;;;;;;;;10.60;99.90;;;;;;5026092;28;20036;-82
2022/03/20 14:17:42;;;;;;;;;;;10.60;99.90;;;;;;5029893;28;19925;-83
2022/03/20 14:20:10;;;;;;;;;;;10.60;99.90;;;;;;5026600;28;19921;-83
2022/03/20 14:22:43;;;;;;;;;;;10.50;99.90;;;;;;5027892;28;20031;-83
2022/03/20 14:25:10;;;;;;;;;;;10.40;99.90;;;;;;5025068;28;19925;-83
2022/03/20 14:27:39;;;;;;;;;;;10.30;99.90;;;;;;5005719;28;20020;-83
2022/03/20 14:41:25;;;;;;;;;;;9.90;99.90;;;;;;5021145;28;19939;-83
2022/03/20 14:44:02;;;;;;;;;;;9.90;99.90;;;;;;5021265;28;19932;-83
2022/03/20 14:46:29;;;;;;;;;;;9.80;99.90;;;;;;5017913;28;20055;-83
2022/03/20 14:48:58;;;;;;;;;;;9.80;99.90;;;;;;5022166;28;19928;-82
2022/03/20 14:51:24;;;;;;;;;;;9.90;99.90;;;;;;5016658;28;19931;-82
2022/03/20 14:53:51;;;;;;;;;;;9.90;99.90;;;;;;5023485;28;19922;-82
2022/03/20 14:56:18;;;;;;;;;;;10.00;99.90;;;;;;5021419;28;19925;-82
2022/03/20 14:58:45;;;;;;;;;;;10.20;99.90;;;;;;5030599;28;19936;-82
2022/03/20 15:01:12;;;;;;;;;;;10.30;99.90;;;;;;5029733;28;20016;-82
2022/03/20 15:03:39;;;;;;;;;;;11.30;99.90;;;;;;5023229;28;19936;-82
2022/03/20 15:06:07;;;;;;;;;;;10.70;99.90;;;;;;5014223;28;19929;-82
2022/03/20 15:11:27;;;;;;;;;;;11.00;99.90;;;;;;5022022;28;19923;-82
2022/03/20 15:13:54;;;;;;;;;;;11.20;99.90;;;;;;5012434;28;19936;-82
2022/03/20 15:16:21;;;;;;;;;;;11.30;99.90;;;;;;5028871;28;19982;-83
2022/03/20 15:18:49;;;;;;;;;;;11.40;99.90;;;;;;5032224;28;20699;-82